Time;durP1;ratioP1;P1;durP2;ratioP2;P2;SDS_P1;SDS_P2;PMS_P1;PMS_P2;Temp;Humidity;BMP_temperature;BMP_pressure;BME280_temperature;BME280_humidity;BME280_pressure;Samples;Min_cycle;Max_cycle;Signal;HPM_P1;HPM_P2
2024/01/03 00:02:02;;;;;;;;;;;7.10;99.90;;;;;;4963130;28;19961;-91
2024/01/03 00:04:27;;;;;;;;;;;7.10;99.90;;;;;;4978756;28;19910;-93
2024/01/03 00:06:53;;;;;;;;;;;7.10;99.90;;;;;;4945582;28;19910;-93
2024/01/03 00:09:19;;;;;;;;;;;7.10;99.90;;;;;;4978364;28;19960;-90
2024/01/03 00:11:45;;;;;;;;;;;7.10;99.90;;;;;;4957489;28;19929;-90
2024/01/03 00:14:17;;;;;;;;;;;7.20;99.90;;;;;;4976583;28;19923;-91
2024/01/03 00:16:42;;;;;;;;;;;7.20;99.90;;;;;;4958218;28;20369;-91
2024/01/03 00:19:24;;;;;;;;;;;7.00;99.90;;;;;;4978348;28;19940;-92
2024/01/03 00:21:50;;;;;;;;;;;7.00;99.90;;;;;;4961466;28;19949;-91
2024/01/03 00:24:19;;;;;;;;;;;6.90;99.90;;;;;;4978042;28;19914;-93
2024/01/03 00:26:45;;;;;;;;;;;6.90;99.90;;;;;;4945665;28;19921;-89
2024/01/03 00:29:34;;;;;;;;;;;6.80;99.90;;;;;;4976629;28;20292;-93
2024/01/03 00:32:02;;;;;;;;;;;6.80;99.90;;;;;;4950752;28;19914;-92
2024/01/03 00:34:37;;;;;;;;;;;6.80;99.90;;;;;;4957931;28;19910;-93
2024/01/03 00:37:14;;;;;;;;;;;6.70;99.90;;;;;;4977710;28;19934;-94
2024/01/03 00:39:40;;;;;;;;;;;6.70;99.90;;;;;;4961703;28;19948;-93
2024/01/03 00:42:06;;;;;;;;;;;6.70;99.90;;;;;;4977509;28;19966;-93
2024/01/03 00:44:31;;;;;;;;;;;6.60;99.90;;;;;;4945301;28;19920;-93
2024/01/03 00:46:58;;;;;;;;;;;6.70;99.90;;;;;;4960480;28;20289;-93
2024/01/03 00:49:24;;;;;;;;;;;6.60;99.90;;;;;;4975514;28;19917;-92
2024/01/03 00:51:50;;;;;;;;;;;6.50;99.90;;;;;;4958069;28;20008;-93
2024/01/03 00:54:16;;;;;;;;;;;6.50;99.90;;;;;;4961918;28;20359;-94
2024/01/03 00:56:54;;;;;;;;;;;6.60;99.90;;;;;;4962089;28;19921;-92
2024/01/03 00:59:20;;;;;;;;;;;6.50;99.90;;;;;;4978297;28;19917;-91
2024/01/03 01:01:47;;;;;;;;;;;6.50;99.90;;;;;;4961677;28;19914;-92
2024/01/03 01:04:13;;;;;;;;;;;6.50;99.90;;;;;;4977532;28;19917;-92
2024/01/03 01:06:41;;;;;;;;;;;6.50;99.90;;;;;;4962221;28;20421;-92
2024/01/03 01:09:08;;;;;;;;;;;6.50;99.90;;;;;;4978814;28;19910;-93
2024/01/03 01:11:34;;;;;;;;;;;6.50;99.90;;;;;;4961569;28;19921;-93
2024/01/03 01:14:00;;;;;;;;;;;6.50;99.90;;;;;;4979266;28;20005;-92
2024/01/03 01:16:25;;;;;;;;;;;6.50;99.90;;;;;;4946219;28;19949;-91
2024/01/03 01:18:51;;;;;;;;;;;6.50;99.90;;;;;;4977680;28;19914;-92
2024/01/03 01:21:18;;;;;;;;;;;6.50;99.90;;;;;;4978921;28;19913;-92
2024/01/03 01:23:43;;;;;;;;;;;6.50;99.90;;;;;;4957972;28;19915;-93
2024/01/03 01:26:09;;;;;;;;;;;6.50;99.90;;;;;;4978058;28;19929;-93
2024/01/03 01:28:36;;;;;;;;;;;6.50;99.90;;;;;;4958726;28;20278;-93
2024/01/03 01:31:01;;;;;;;;;;;6.60;99.90;;;;;;4978070;28;19910;-92
2024/01/03 01:33:27;;;;;;;;;;;6.60;99.90;;;;;;4976391;28;20361;-92
2024/01/03 01:35:54;;;;;;;;;;;6.60;99.90;;;;;;4978647;28;19902;-93
2024/01/03 01:38:20;;;;;;;;;;;6.60;99.90;;;;;;4962300;28;19933;-93
2024/01/03 01:40:49;;;;;;;;;;;6.60;99.90;;;;;;4946347;28;19917;-94
2024/01/03 01:43:16;;;;;;;;;;;6.70;99.90;;;;;;4962558;28;19916;-94
2024/01/03 01:45:41;;;;;;;;;;;6.70;99.90;;;;;;4962127;28;19914;-94
2024/01/03 01:48:07;;;;;;;;;;;6.70;99.90;;;;;;4961232;28;20000;-90
2024/01/03 01:50:38;;;;;;;;;;;6.70;99.90;;;;;;4961349;28;19949;-92
2024/01/03 01:53:05;;;;;;;;;;;6.70;99.90;;;;;;4961348;28;19928;-92
2024/01/03 01:55:30;;;;;;;;;;;6.70;99.90;;;;;;4977369;28;19906;-92
2024/01/03 01:57:56;;;;;;;;;;;6.70;99.90;;;;;;4963518;28;20393;-92
2024/01/03 02:00:22;;;;;;;;;;;6.80;99.90;;;;;;4951950;28;19953;-91
2024/01/03 02:02:48;;;;;;;;;;;6.80;99.90;;;;;;4977587;28;19933;-92
2024/01/03 02:05:13;;;;;;;;;;;6.70;99.90;;;;;;4960980;28;19916;-92
2024/01/03 02:07:39;;;;;;;;;;;6.70;99.90;;;;;;4961261;28;19949;-93
2024/01/03 02:10:05;;;;;;;;;;;6.70;99.90;;;;;;4961831;28;19910;-91
2024/01/03 02:12:31;;;;;;;;;;;6.70;99.90;;;;;;4977952;28;19996;-93
2024/01/03 02:14:56;;;;;;;;;;;6.70;99.90;;;;;;4961133;28;19970;-93
2024/01/03 02:17:22;;;;;;;;;;;6.70;99.90;;;;;;4976683;28;19913;-93
2024/01/03 02:19:48;;;;;;;;;;;6.70;99.90;;;;;;4960494;28;20357;-90
2024/01/03 02:22:15;;;;;;;;;;;6.70;99.90;;;;;;4976527;28;19910;-91
2024/01/03 02:24:43;;;;;;;;;;;6.70;99.90;;;;;;4960743;28;19912;-92
2024/01/03 02:27:08;;;;;;;;;;;6.70;99.90;;;;;;4976973;28;20000;-91
2024/01/03 02:29:34;;;;;;;;;;;6.70;99.90;;;;;;4976690;28;19917;-91
2024/01/03 02:31:59;;;;;;;;;;;6.70;99.90;;;;;;4976080;28;19910;-93
2024/01/03 02:34:26;;;;;;;;;;;6.70;99.90;;;;;;4958606;28;19921;-91
2024/01/03 02:36:52;;;;;;;;;;;6.70;99.90;;;;;;4955825;28;19916;-91
2024/01/03 02:39:17;;;;;;;;;;;6.80;99.90;;;;;;4961930;28;20449;-92
2024/01/03 02:41:43;;;;;;;;;;;6.80;99.90;;;;;;4962113;28;20000;-94
2024/01/03 02:44:09;;;;;;;;;;;6.80;99.90;;;;;;4961508;28;19910;-93
2024/01/03 02:46:34;;;;;;;;;;;6.80;99.90;;;;;;4980145;28;19910;-94
2024/01/03 02:49:02;;;;;;;;;;;6.80;99.90;;;;;;4964185;28;19996;-94
2024/01/03 02:51:28;;;;;;;;;;;6.90;99.90;;;;;;4978808;28;20505;-93
2024/01/03 02:53:54;;;;;;;;;;;6.90;99.90;;;;;;4958654;28;19910;-93
2024/01/03 02:56:19;;;;;;;;;;;6.90;99.90;;;;;;4968715;28;19956;-93
2024/01/03 02:58:45;;;;;;;;;;;6.90;99.90;;;;;;4962425;28;19906;-94
2024/01/03 03:01:11;;;;;;;;;;;6.90;99.90;;;;;;4962073;28;19953;-93
2024/01/03 03:03:36;;;;;;;;;;;7.00;99.90;;;;;;4945256;28;19906;-93
2024/01/03 03:06:03;;;;;;;;;;;7.00;99.90;;;;;;4962163;28;19910;-93
2024/01/03 03:08:28;;;;;;;;;;;6.90;99.90;;;;;;4945453;28;20018;-94
2024/01/03 03:10:54;;;;;;;;;;;7.00;99.90;;;;;;4945625;28;19910;-94
2024/01/03 03:13:20;;;;;;;;;;;7.00;99.90;;;;;;4976853;28;19914;-92
2024/01/03 03:15:46;;;;;;;;;;;7.00;99.90;;;;;;4960445;28;19910;-91
2024/01/03 03:18:12;;;;;;;;;;;6.90;99.90;;;;;;4944333;28;19985;-91
2024/01/03 03:20:38;;;;;;;;;;;6.90;99.90;;;;;;4961399;28;19916;-93
2024/01/03 03:23:04;;;;;;;;;;;6.80;99.90;;;;;;4945851;28;19983;-94
2024/01/03 03:25:29;;;;;;;;;;;6.80;99.90;;;;;;4961765;28;20005;-93
2024/01/03 03:27:55;;;;;;;;;;;6.70;99.90;;;;;;4960736;28;19906;-92
2024/01/03 03:30:21;;;;;;;;;;;6.70;99.90;;;;;;4976289;28;19914;-93
2024/01/03 03:32:47;;;;;;;;;;;6.70;99.90;;;;;;4960255;28;19945;-93
2024/01/03 03:35:13;;;;;;;;;;;6.70;99.90;;;;;;4946029;28;19910;-94
2024/01/03 03:37:42;;;;;;;;;;;6.70;99.90;;;;;;4947818;28;19957;-92
2024/01/03 03:40:08;;;;;;;;;;;6.70;99.90;;;;;;4947196;28;19910;-92
2024/01/03 03:42:33;;;;;;;;;;;6.70;99.90;;;;;;4974432;28;19916;-93
2024/01/03 03:44:59;;;;;;;;;;;6.70;99.90;;;;;;4963074;28;19910;-90
2024/01/03 03:47:25;;;;;;;;;;;6.70;99.90;;;;;;4962612;28;19934;-93
2024/01/03 03:49:50;;;;;;;;;;;6.70;99.90;;;;;;4963869;28;19910;-94
2024/01/03 03:52:16;;;;;;;;;;;6.80;99.90;;;;;;4947151;28;19914;-94
2024/01/03 03:54:41;;;;;;;;;;;6.70;99.90;;;;;;4958661;28;19913;-93
2024/01/03 03:57:07;;;;;;;;;;;6.70;99.90;;;;;;4964576;28;19910;-95
2024/01/03 03:59:33;;;;;;;;;;;6.70;99.90;;;;;;4965105;28;19909;-92
2024/01/03 04:01:59;;;;;;;;;;;6.80;99.90;;;;;;4975435;28;19916;-93
2024/01/03 04:04:24;;;;;;;;;;;6.70;99.90;;;;;;4964221;28;20004;-92
2024/01/03 04:06:50;;;;;;;;;;;6.70;99.90;;;;;;4963534;28;19914;-93
2024/01/03 04:09:15;;;;;;;;;;;6.80;99.90;;;;;;4965570;28;19964;-93
2024/01/03 04:11:44;;;;;;;;;;;6.70;99.90;;;;;;4984833;28;19973;-93
2024/01/03 04:14:10;;;;;;;;;;;6.70;99.90;;;;;;4947031;28;19961;-91
2024/01/03 04:16:36;;;;;;;;;;;6.70;99.90;;;;;;4978736;28;19972;-92
2024/01/03 04:19:02;;;;;;;;;;;6.70;99.90;;;;;;4962462;28;20293;-91
2024/01/03 04:21:28;;;;;;;;;;;6.70;99.90;;;;;;4975525;28;19972;-93
2024/01/03 04:23:54;;;;;;;;;;;6.70;99.90;;;;;;4971311;28;20277;-93
2024/01/03 04:26:19;;;;;;;;;;;6.70;99.90;;;;;;4964074;28;19918;-93
2024/01/03 04:28:45;;;;;;;;;;;6.60;99.90;;;;;;4960229;28;19910;-93
2024/01/03 04:31:10;;;;;;;;;;;6.60;99.90;;;;;;4974979;28;20342;-94
2024/01/03 04:33:36;;;;;;;;;;;6.60;99.90;;;;;;4963011;28;20277;-92
2024/01/03 04:36:02;;;;;;;;;;;6.60;99.90;;;;;;4963582;28;19917;-93
2024/01/03 04:38:27;;;;;;;;;;;6.60;99.90;;;;;;4947106;28;19910;-93
2024/01/03 04:40:53;;;;;;;;;;;6.50;99.90;;;;;;4962814;28;20008;-94
2024/01/03 04:43:18;;;;;;;;;;;6.50;99.90;;;;;;4962282;28;19910;-93
2024/01/03 04:45:44;;;;;;;;;;;6.50;99.90;;;;;;4978147;28;19921;-94
2024/01/03 04:48:10;;;;;;;;;;;6.60;99.90;;;;;;4961968;28;19925;-93
2024/01/03 04:50:35;;;;;;;;;;;6.60;99.90;;;;;;4978574;28;19914;-93
2024/01/03 04:53:01;;;;;;;;;;;6.60;99.90;;;;;;4961549;28;20373;-93
2024/01/03 04:55:27;;;;;;;;;;;6.60;99.90;;;;;;4978373;28;19910;-92
2024/01/03 04:57:53;;;;;;;;;;;6.60;99.90;;;;;;4962672;28;19906;-92
2024/01/03 05:03:46;;;;;;;;;;;6.60;99.90;;;;;;4972311;28;19917;-91
2024/01/03 05:06:30;;;;;;;;;;;6.50;99.90;;;;;;4962114;28;19910;-92
2024/01/03 05:08:56;;;;;;;;;;;6.50;99.90;;;;;;4970853;28;20354;-93
2024/01/03 05:11:22;;;;;;;;;;;6.50;99.90;;;;;;4961050;28;19917;-93
2024/01/03 05:13:47;;;;;;;;;;;6.50;99.90;;;;;;4977639;28;20417;-92
2024/01/03 05:16:13;;;;;;;;;;;6.60;99.90;;;;;;4961629;28;20022;-93
2024/01/03 05:18:39;;;;;;;;;;;6.60;99.90;;;;;;4978479;28;19910;-92
2024/01/03 05:21:06;;;;;;;;;;;6.60;99.90;;;;;;4962242;28;19906;-93
2024/01/03 05:23:32;;;;;;;;;;;6.50;99.90;;;;;;4961484;28;19924;-92
2024/01/03 05:25:58;;;;;;;;;;;6.50;99.90;;;;;;4962231;28;19910;-93
2024/01/03 05:28:23;;;;;;;;;;;6.50;99.90;;;;;;4962134;28;19910;-93
2024/01/03 05:30:49;;;;;;;;;;;6.50;99.90;;;;;;4961546;28;19910;-93
2024/01/03 05:33:15;;;;;;;;;;;6.50;99.90;;;;;;4961521;28;19914;-93
2024/01/03 05:35:40;;;;;;;;;;;6.50;99.90;;;;;;4961739;28;19917;-92
2024/01/03 05:38:06;;;;;;;;;;;6.40;99.90;;;;;;4961855;28;19910;-92
2024/01/03 05:40:31;;;;;;;;;;;6.40;99.90;;;;;;4956830;28;19914;-93
2024/01/03 05:42:57;;;;;;;;;;;6.40;99.90;;;;;;4961944;28;19917;-92
2024/01/03 05:45:22;;;;;;;;;;;6.40;99.90;;;;;;4961583;28;19937;-92
2024/01/03 05:47:48;;;;;;;;;;;6.30;99.90;;;;;;4961375;28;19917;-93
2024/01/03 05:50:14;;;;;;;;;;;6.30;99.90;;;;;;4961063;28;19910;-91
2024/01/03 05:52:39;;;;;;;;;;;6.30;99.90;;;;;;4977041;28;19921;-90
2024/01/03 05:55:06;;;;;;;;;;;6.30;99.90;;;;;;4976980;28;20050;-92
2024/01/03 05:57:32;;;;;;;;;;;6.40;99.90;;;;;;4975508;28;19914;-92
2024/01/03 05:59:58;;;;;;;;;;;6.40;99.90;;;;;;4944529;28;20008;-90
2024/01/03 06:02:23;;;;;;;;;;;6.40;99.90;;;;;;4960091;28;20366;-92
2024/01/03 06:05:16;;;;;;;;;;;6.40;99.90;;;;;;4944415;28;19949;-92
2024/01/03 06:07:44;;;;;;;;;;;6.40;99.90;;;;;;4959038;28;19920;-91
2024/01/03 06:10:09;;;;;;;;;;;6.50;99.90;;;;;;4960970;28;20274;-93
2024/01/03 06:12:35;;;;;;;;;;;6.40;99.90;;;;;;4960007;28;19913;-92
2024/01/03 06:15:01;;;;;;;;;;;6.50;99.90;;;;;;4957994;28;20419;-92
2024/01/03 06:17:26;;;;;;;;;;;6.50;99.90;;;;;;4960553;28;19910;-93
2024/01/03 06:19:52;;;;;;;;;;;6.60;99.90;;;;;;4976872;28;19918;-92
2024/01/03 06:22:18;;;;;;;;;;;6.60;99.90;;;;;;4944368;28;19914;-92
2024/01/03 06:28:11;;;;;;;;;;;6.60;99.90;;;;;;4970571;28;19925;-94
2024/01/03 06:30:37;;;;;;;;;;;6.60;99.90;;;;;;4943839;28;19910;-93
2024/01/03 06:33:03;;;;;;;;;;;6.70;99.90;;;;;;4960750;28;19983;-91
2024/01/03 06:35:28;;;;;;;;;;;6.70;99.90;;;;;;4960574;28;19916;-91
2024/01/03 06:37:54;;;;;;;;;;;6.70;99.90;;;;;;4979075;28;19918;-92
2024/01/03 06:40:21;;;;;;;;;;;6.70;99.90;;;;;;4960683;28;19910;-90
2024/01/03 06:42:46;;;;;;;;;;;6.70;99.90;;;;;;4976831;28;19914;-93
2024/01/03 06:45:12;;;;;;;;;;;6.70;99.90;;;;;;4961729;28;19938;-92
2024/01/03 06:47:37;;;;;;;;;;;6.70;99.90;;;;;;4976749;28;19918;-92
2024/01/03 06:50:03;;;;;;;;;;;6.70;99.90;;;;;;4960132;28;19910;-92
2024/01/03 06:52:29;;;;;;;;;;;6.70;99.90;;;;;;4976742;28;19933;-93
2024/01/03 06:54:56;;;;;;;;;;;6.70;99.90;;;;;;4977076;28;19910;-93
2024/01/03 06:57:22;;;;;;;;;;;6.70;99.90;;;;;;4960947;28;20365;-93
2024/01/03 06:59:48;;;;;;;;;;;6.70;99.90;;;;;;4959692;28;20001;-94
2024/01/03 07:02:14;;;;;;;;;;;6.70;99.90;;;;;;4960632;28;19917;-93
2024/01/03 07:04:39;;;;;;;;;;;6.70;99.90;;;;;;4976534;28;19934;-93
2024/01/03 07:07:05;;;;;;;;;;;6.70;99.90;;;;;;4960024;28;19910;-92
2024/01/03 07:09:31;;;;;;;;;;;6.70;99.90;;;;;;4960262;28;19914;-92
2024/01/03 07:11:56;;;;;;;;;;;6.70;99.90;;;;;;4964028;28;19969;-92
2024/01/03 07:14:22;;;;;;;;;;;6.70;99.90;;;;;;4980406;28;19917;-92
2024/01/03 07:16:48;;;;;;;;;;;6.70;99.90;;;;;;4979482;28;19910;-92
2024/01/03 07:19:22;;;;;;;;;;;6.70;99.90;;;;;;4963678;28;19906;-92
2024/01/03 07:21:48;;;;;;;;;;;6.80;99.90;;;;;;4952534;28;19910;-89
2024/01/03 07:24:13;;;;;;;;;;;6.80;99.90;;;;;;4966792;28;20526;-87
2024/01/03 07:26:39;;;;;;;;;;;6.80;99.90;;;;;;4959813;28;19972;-89
2024/01/03 07:29:05;;;;;;;;;;;6.80;99.90;;;;;;4959484;28;20030;-90
2024/01/03 07:31:30;;;;;;;;;;;6.80;99.90;;;;;;4973054;28;20297;-88
2024/01/03 07:33:56;;;;;;;;;;;6.70;99.90;;;;;;4954646;28;20013;-88
2024/01/03 07:36:22;;;;;;;;;;;6.80;99.90;;;;;;4959563;28;20349;-89
2024/01/03 07:38:47;;;;;;;;;;;6.70;99.90;;;;;;4954122;28;20397;-89
2024/01/03 07:41:17;;;;;;;;;;;6.70;99.90;;;;;;4975264;28;19910;-89
2024/01/03 07:43:42;;;;;;;;;;;6.80;99.90;;;;;;4941398;28;20032;-89
2024/01/03 07:46:09;;;;;;;;;;;6.80;99.90;;;;;;4960425;28;20070;-89
2024/01/03 07:48:34;;;;;;;;;;;6.80;99.90;;;;;;4959731;28;20422;-88
2024/01/03 07:51:00;;;;;;;;;;;6.80;99.90;;;;;;4957486;28;20177;-88
2024/01/03 07:53:26;;;;;;;;;;;6.80;99.90;;;;;;4975033;28;20601;-88
2024/01/03 07:55:53;;;;;;;;;;;6.80;99.90;;;;;;4960627;28;19925;-88
2024/01/03 07:58:19;;;;;;;;;;;6.90;99.90;;;;;;4956005;28;19917;-88
2024/01/03 08:00:47;;;;;;;;;;;6.80;99.90;;;;;;4957881;28;19910;-88
2024/01/03 08:03:13;;;;;;;;;;;6.80;99.90;;;;;;4966140;28;19985;-89
2024/01/03 08:05:39;;;;;;;;;;;6.70;99.90;;;;;;4973937;28;20326;-89
2024/01/03 08:08:04;;;;;;;;;;;6.70;99.90;;;;;;4973113;28;20021;-89
2024/01/03 08:10:30;;;;;;;;;;;6.70;99.90;;;;;;4959036;28;19968;-88
2024/01/03 08:12:56;;;;;;;;;;;6.70;99.90;;;;;;4966363;28;19925;-90
2024/01/03 08:15:22;;;;;;;;;;;6.60;99.90;;;;;;4960501;28;19934;-89
2024/01/03 08:17:47;;;;;;;;;;;6.60;99.90;;;;;;4959207;28;19909;-89
2024/01/03 08:20:13;;;;;;;;;;;6.60;99.90;;;;;;4937748;28;19949;-89
2024/01/03 08:22:39;;;;;;;;;;;6.60;99.90;;;;;;4956016;28;19980;-89
2024/01/03 08:25:05;;;;;;;;;;;6.60;99.90;;;;;;4966128;28;19918;-88
2024/01/03 08:27:32;;;;;;;;;;;6.50;99.90;;;;;;4959224;28;19952;-89
2024/01/03 08:29:57;;;;;;;;;;;6.50;99.90;;;;;;4939740;28;19910;-88
2024/01/03 08:32:26;;;;;;;;;;;6.50;99.90;;;;;;4973215;28;20392;-89
2024/01/03 08:34:52;;;;;;;;;;;6.50;99.90;;;;;;4955635;28;19921;-90
2024/01/03 08:37:17;;;;;;;;;;;6.50;99.90;;;;;;4958935;28;20004;-89
2024/01/03 08:39:43;;;;;;;;;;;6.50;99.90;;;;;;4974358;28;19929;-89
2024/01/03 08:42:09;;;;;;;;;;;6.50;99.90;;;;;;4973772;28;20369;-89
2024/01/03 08:44:35;;;;;;;;;;;6.50;99.90;;;;;;4970015;28;20376;-89
2024/01/03 08:47:00;;;;;;;;;;;6.50;99.90;;;;;;4964597;28;19911;-90
2024/01/03 08:49:26;;;;;;;;;;;6.50;99.90;;;;;;4973080;28;19925;-90
2024/01/03 08:51:52;;;;;;;;;;;6.50;99.90;;;;;;4975097;28;20373;-90
2024/01/03 08:54:17;;;;;;;;;;;6.50;99.90;;;;;;4959056;28;20610;-88
2024/01/03 08:56:43;;;;;;;;;;;6.60;99.90;;;;;;4958284;28;19926;-89
2024/01/03 08:59:09;;;;;;;;;;;6.50;99.90;;;;;;4942826;28;19926;-90
2024/01/03 09:01:35;;;;;;;;;;;6.50;99.90;;;;;;4955125;28;20281;-90
2024/01/03 09:04:01;;;;;;;;;;;6.50;99.90;;;;;;4962581;28;19928;-89
2024/01/03 09:06:26;;;;;;;;;;;6.60;99.90;;;;;;4941875;28;19921;-89
2024/01/03 09:08:54;;;;;;;;;;;6.60;99.90;;;;;;4965117;28;20313;-89
2024/01/03 09:11:27;;;;;;;;;;;6.70;99.90;;;;;;4959075;28;19916;-89
2024/01/03 09:13:53;;;;;;;;;;;6.70;99.90;;;;;;4975427;28;20506;-89
2024/01/03 09:16:20;;;;;;;;;;;6.70;99.90;;;;;;4942622;28;19910;-89
2024/01/03 09:18:46;;;;;;;;;;;6.70;99.90;;;;;;4968512;28;19926;-88
2024/01/03 09:21:11;;;;;;;;;;;6.70;99.90;;;;;;4952434;28;19914;-89
2024/01/03 09:23:37;;;;;;;;;;;6.70;99.90;;;;;;4950778;28;20377;-89
2024/01/03 09:26:03;;;;;;;;;;;6.70;99.90;;;;;;4951275;28;20389;-88
2024/01/03 09:28:29;;;;;;;;;;;6.70;99.90;;;;;;4958298;28;20365;-88
2024/01/03 09:30:57;;;;;;;;;;;6.80;99.90;;;;;;4958440;28;19914;-88
2024/01/03 09:33:32;;;;;;;;;;;6.70;99.90;;;;;;4957534;28;20366;-88
2024/01/03 09:35:58;;;;;;;;;;;6.70;99.90;;;;;;4958512;28;20338;-88
2024/01/03 09:38:24;;;;;;;;;;;6.70;99.90;;;;;;4962220;28;19910;-88
2024/01/03 09:40:50;;;;;;;;;;;6.80;99.90;;;;;;4974432;28;20417;-88
2024/01/03 09:43:16;;;;;;;;;;;6.70;99.90;;;;;;4956149;28;20485;-88
2024/01/03 09:45:41;;;;;;;;;;;6.70;99.90;;;;;;4942281;28;19933;-89
2024/01/03 09:48:09;;;;;;;;;;;6.70;99.90;;;;;;4955295;28;19917;-88
2024/01/03 09:50:35;;;;;;;;;;;6.70;99.90;;;;;;4957902;28;19910;-89
2024/01/03 09:53:01;;;;;;;;;;;6.70;99.90;;;;;;4973811;28;19923;-90
2024/01/03 09:55:29;;;;;;;;;;;6.60;99.90;;;;;;4941873;28;19913;-89
2024/01/03 09:57:55;;;;;;;;;;;6.60;99.90;;;;;;4942192;28;19909;-89
2024/01/03 10:00:21;;;;;;;;;;;6.60;99.90;;;;;;4942738;28;19933;-89
2024/01/03 10:02:47;;;;;;;;;;;6.50;99.90;;;;;;4954755;28;19993;-89
2024/01/03 10:05:22;;;;;;;;;;;6.60;99.90;;;;;;4971097;28;19905;-89
2024/01/03 10:07:48;;;;;;;;;;;6.50;99.90;;;;;;4954074;28;19910;-89
2024/01/03 10:10:29;;;;;;;;;;;6.60;99.90;;;;;;4973937;28;19969;-88
2024/01/03 10:12:55;;;;;;;;;;;6.60;99.90;;;;;;4958522;28;20008;-89
2024/01/03 10:15:21;;;;;;;;;;;6.60;99.90;;;;;;4958375;28;19973;-88
2024/01/03 10:17:46;;;;;;;;;;;6.50;99.90;;;;;;4957960;28;20349;-89
2024/01/03 10:20:28;;;;;;;;;;;6.40;99.90;;;;;;4974828;28;19910;-89
2024/01/03 10:23:02;;;;;;;;;;;6.30;99.90;;;;;;4955063;28;19918;-90
2024/01/03 10:25:28;;;;;;;;;;;6.20;99.90;;;;;;4973876;28;19910;-89
2024/01/03 10:28:03;;;;;;;;;;;6.20;99.90;;;;;;4974347;28;20338;-90
2024/01/03 10:30:29;;;;;;;;;;;6.20;99.90;;;;;;4957708;28;19917;-88
2024/01/03 10:32:58;;;;;;;;;;;6.20;99.90;;;;;;4974089;28;20001;-89
2024/01/03 10:35:30;;;;;;;;;;;6.20;99.90;;;;;;4957585;28;20548;-88
2024/01/03 10:37:57;;;;;;;;;;;6.20;99.90;;;;;;4975511;28;20294;-88
2024/01/03 10:40:41;;;;;;;;;;;6.30;99.90;;;;;;4958066;28;19957;-89
2024/01/03 10:43:10;;;;;;;;;;;6.30;99.90;;;;;;4937532;28;19924;-88
2024/01/03 10:45:35;;;;;;;;;;;6.30;99.90;;;;;;4978548;28;20673;-88
2024/01/03 10:48:01;;;;;;;;;;;6.30;99.90;;;;;;4956630;28;19914;-87
2024/01/03 10:50:28;;;;;;;;;;;6.30;99.90;;;;;;4958530;28;20334;-88
2024/01/03 10:52:57;;;;;;;;;;;6.40;99.90;;;;;;4980823;28;19918;-88
2024/01/03 10:55:29;;;;;;;;;;;6.60;99.90;;;;;;4972542;28;19925;-89
2024/01/03 10:57:54;;;;;;;;;;;6.80;99.90;;;;;;4940712;28;19916;-88
2024/01/03 11:00:25;;;;;;;;;;;6.90;99.90;;;;;;4961497;28;19910;-89
2024/01/03 11:02:57;;;;;;;;;;;7.10;99.90;;;;;;4960159;28;19917;-89
2024/01/03 11:05:33;;;;;;;;;;;7.30;99.90;;;;;;4969230;28;19981;-87
2024/01/03 11:08:02;;;;;;;;;;;7.50;99.90;;;;;;4957851;28;19925;-88
2024/01/03 11:10:54;;;;;;;;;;;7.70;99.90;;;;;;4958326;28;20263;-88
2024/01/03 11:13:32;;;;;;;;;;;7.80;99.90;;;;;;4960114;28;19921;-87
2024/01/03 11:16:06;;;;;;;;;;;8.10;99.90;;;;;;4937912;29;19914;-88
2024/01/03 11:18:41;;;;;;;;;;;8.40;99.90;;;;;;4973035;28;19918;-88
2024/01/03 11:21:27;;;;;;;;;;;8.30;99.90;;;;;;4974031;28;19910;-89
2024/01/03 11:23:52;;;;;;;;;;;8.20;99.90;;;;;;4971196;28;19921;-90
2024/01/03 11:26:18;;;;;;;;;;;8.00;99.90;;;;;;4958212;28;19914;-89
2024/01/03 11:28:50;;;;;;;;;;;7.80;99.90;;;;;;4967631;28;19914;-90
2024/01/03 11:31:39;;;;;;;;;;;7.70;99.90;;;;;;4941406;28;20601;-89
2024/01/03 11:37:34;;;;;;;;;;;7.60;99.90;;;;;;4967929;28;19937;-89
2024/01/03 11:40:00;;;;;;;;;;;7.80;99.90;;;;;;4976901;28;19931;-88
2024/01/03 11:42:30;;;;;;;;;;;7.90;99.90;;;;;;4977096;28;19914;-90
2024/01/03 11:45:02;;;;;;;;;;;7.80;99.90;;;;;;4977440;28;19910;-88
2024/01/03 11:47:28;;;;;;;;;;;7.80;99.90;;;;;;4960354;28;20342;-90
2024/01/03 11:49:56;;;;;;;;;;;7.70;99.90;;;;;;4959334;28;19996;-90
2024/01/03 11:52:22;;;;;;;;;;;7.60;99.90;;;;;;4960367;28;19932;-90
2024/01/03 11:54:49;;;;;;;;;;;7.50;99.90;;;;;;4976916;28;19917;-89
2024/01/03 11:57:14;;;;;;;;;;;7.40;99.90;;;;;;4976343;28;19933;-88
2024/01/03 11:59:41;;;;;;;;;;;7.30;99.90;;;;;;4960748;28;19913;-89
2024/01/03 12:02:07;;;;;;;;;;;7.20;99.90;;;;;;4976571;28;19913;-89
2024/01/03 12:04:33;;;;;;;;;;;7.10;99.90;;;;;;4960440;28;20001;-90
2024/01/03 12:06:59;;;;;;;;;;;7.10;99.90;;;;;;4976747;28;19953;-90
2024/01/03 12:09:31;;;;;;;;;;;7.00;99.90;;;;;;4977554;28;19909;-90
2024/01/03 12:11:57;;;;;;;;;;;6.90;99.90;;;;;;4936975;28;19922;-90
2024/01/03 12:14:22;;;;;;;;;;;6.80;99.90;;;;;;4970561;28;19917;-90
2024/01/03 12:16:48;;;;;;;;;;;6.70;99.90;;;;;;4965844;28;20622;-89
2024/01/03 12:19:24;;;;;;;;;;;6.60;99.90;;;;;;4973007;28;20026;-89
2024/01/03 12:21:57;;;;;;;;;;;6.70;99.90;;;;;;4953527;28;19910;-90
2024/01/03 12:24:38;;;;;;;;;;;6.70;99.90;;;;;;4960394;28;20277;-90
2024/01/03 12:27:19;;;;;;;;;;;6.70;99.90;;;;;;4968923;28;19997;-89
2024/01/03 12:29:44;;;;;;;;;;;6.80;99.90;;;;;;4977391;28;19910;-89
2024/01/03 12:32:11;;;;;;;;;;;6.80;99.90;;;;;;4957359;28;20374;-89
2024/01/03 12:34:37;;;;;;;;;;;6.90;99.90;;;;;;4959298;28;20406;-89
2024/01/03 12:37:02;;;;;;;;;;;6.90;99.90;;;;;;4975779;28;19907;-88
2024/01/03 12:39:32;;;;;;;;;;;6.80;99.90;;;;;;4976663;28;20300;-88
2024/01/03 12:41:58;;;;;;;;;;;6.80;99.90;;;;;;4955948;29;19910;-89
2024/01/03 12:44:23;;;;;;;;;;;6.90;99.90;;;;;;4958882;28;19913;-88
2024/01/03 12:46:49;;;;;;;;;;;6.90;99.90;;;;;;4958678;28;20281;-88
2024/01/03 12:49:15;;;;;;;;;;;6.90;99.90;;;;;;4971772;28;19938;-88
2024/01/03 12:51:40;;;;;;;;;;;6.90;99.90;;;;;;4954787;28;19917;-89
2024/01/03 12:54:06;;;;;;;;;;;7.00;99.90;;;;;;4958633;28;20594;-88
2024/01/03 12:56:31;;;;;;;;;;;7.10;99.90;;;;;;4956412;28;20420;-89
2024/01/03 12:58:57;;;;;;;;;;;7.20;99.90;;;;;;4969053;28;19917;-89
2024/01/03 13:01:23;;;;;;;;;;;7.20;99.90;;;;;;4972398;28;19910;-89
2024/01/03 13:03:48;;;;;;;;;;;7.20;99.90;;;;;;4958348;28;20380;-90
2024/01/03 13:06:14;;;;;;;;;;;7.20;99.90;;;;;;4974477;28;19910;-89
2024/01/03 13:08:39;;;;;;;;;;;7.20;99.90;;;;;;4957557;28;20515;-89
2024/01/03 13:11:05;;;;;;;;;;;7.30;99.90;;;;;;4974669;28;20342;-90
2024/01/03 13:13:30;;;;;;;;;;;7.30;99.90;;;;;;4958362;28;19914;-88
2024/01/03 13:15:56;;;;;;;;;;;7.30;99.90;;;;;;4958254;28;19910;-87
2024/01/03 13:18:47;;;;;;;;;;;7.40;99.90;;;;;;4957209;28;19918;-88
2024/01/03 13:21:12;;;;;;;;;;;7.40;99.90;;;;;;4958550;28;19992;-88
2024/01/03 13:23:54;;;;;;;;;;;7.40;99.90;;;;;;4953342;28;20393;-88
2024/01/03 13:26:36;;;;;;;;;;;7.40;99.90;;;;;;4958698;28;19919;-87
2024/01/03 13:29:13;;;;;;;;;;;7.40;99.90;;;;;;5152825;27;19911;-88
2024/01/03 13:31:38;;;;;;;;;;;7.40;99.90;;;;;;5118366;27;19982;-89
2024/01/03 13:34:04;;;;;;;;;;;7.40;99.90;;;;;;5113632;28;20370;-90
2024/01/03 13:36:30;;;;;;;;;;;7.30;99.90;;;;;;5117812;27;19907;-88
2024/01/03 13:38:55;;;;;;;;;;;7.30;99.90;;;;;;5117470;27;19911;-88
2024/01/03 13:41:21;;;;;;;;;;;7.20;99.90;;;;;;5134133;27;19965;-87
2024/01/03 13:43:50;;;;;;;;;;;7.20;99.90;;;;;;5117227;27;19915;-89
2024/01/03 13:46:17;;;;;;;;;;;7.20;99.90;;;;;;5116804;27;19912;-88
2024/01/03 13:48:44;;;;;;;;;;;7.20;99.90;;;;;;5117913;27;19947;-90
2024/01/03 13:51:09;;;;;;;;;;;7.10;99.90;;;;;;5135365;27;19911;-88
2024/01/03 13:53:35;;;;;;;;;;;7.10;99.90;;;;;;5111455;27;20386;-88
2024/01/03 13:56:01;;;;;;;;;;;7.10;99.90;;;;;;5118563;27;19912;-87
2024/01/03 13:58:27;;;;;;;;;;;7.10;99.90;;;;;;5118122;27;20378;-89
2024/01/03 14:00:53;;;;;;;;;;;7.10;99.90;;;;;;5119552;27;19968;-90
2024/01/03 14:03:18;;;;;;;;;;;7.10;99.90;;;;;;5136060;27;20363;-88
2024/01/03 14:05:44;;;;;;;;;;;7.20;99.90;;;;;;5117454;27;19911;-89
2024/01/03 14:08:10;;;;;;;;;;;7.10;99.90;;;;;;5118457;27;20366;-88
2024/01/03 14:10:36;;;;;;;;;;;7.10;99.90;;;;;;5117762;27;19919;-88
2024/01/03 14:13:01;;;;;;;;;;;7.10;99.90;;;;;;5120629;27;19918;-88
2024/01/03 14:15:28;;;;;;;;;;;7.20;99.90;;;;;;5132790;27;19955;-88
2024/01/03 14:17:53;;;;;;;;;;;7.20;99.90;;;;;;5119627;27;19915;-88
2024/01/03 14:20:19;;;;;;;;;;;7.10;99.90;;;;;;5119577;27;19911;-88
2024/01/03 14:22:45;;;;;;;;;;;7.10;99.90;;;;;;5120059;27;20305;-88
2024/01/03 14:25:11;;;;;;;;;;;7.10;99.90;;;;;;5116095;27;19916;-88
2024/01/03 14:27:40;;;;;;;;;;;7.20;99.90;;;;;;5115510;27;19930;-87
2024/01/03 14:30:09;;;;;;;;;;;7.20;99.90;;;;;;5115089;27;19918;-87
2024/01/03 14:32:35;;;;;;;;;;;7.20;99.90;;;;;;5114152;27;20636;-87
2024/01/03 14:35:01;;;;;;;;;;;7.20;99.90;;;;;;5115430;27;19918;-87
2024/01/03 14:37:28;;;;;;;;;;;7.20;99.90;;;;;;5132905;27;20277;-87
2024/01/03 14:39:54;;;;;;;;;;;7.30;99.90;;;;;;5098331;27;19922;-87
2024/01/03 14:42:22;;;;;;;;;;;7.20;99.90;;;;;;5101670;27;19911;-86